createdAt,value
2023-05-23T00:00:52.230Z,12.60
2023-05-23T00:03:23.068Z,12.56
2023-05-23T00:05:51.464Z,12.53
2023-05-23T00:08:18.295Z,12.50
2023-05-23T00:10:45.548Z,12.49
2023-05-23T00:13:15.348Z,12.42
2023-05-23T00:15:42.418Z,12.43
2023-05-23T00:18:12.468Z,12.44
2023-05-23T00:20:43.042Z,12.39
2023-05-23T00:23:10.489Z,12.35
2023-05-23T00:25:37.703Z,12.33
2023-05-23T00:28:05.110Z,12.35
2023-05-23T00:30:32.890Z,12.38
2023-05-23T00:33:01.078Z,12.36
2023-05-23T00:35:28.006Z,12.35
2023-05-23T00:37:55.678Z,12.33
2023-05-23T00:40:22.951Z,12.29
2023-05-23T00:42:49.923Z,12.28
2023-05-23T00:45:17.253Z,12.26
2023-05-23T00:47:43.998Z,12.29
2023-05-23T00:50:16.882Z,12.30
2023-05-23T00:52:45.069Z,12.32
2023-05-23T00:55:12.609Z,12.34
2023-05-23T00:57:44.628Z,12.35
2023-05-23T01:00:12.452Z,12.38
2023-05-23T01:02:41.785Z,12.39
2023-05-23T01:05:08.966Z,12.33
2023-05-23T01:07:36.218Z,12.31
2023-05-23T01:10:03.675Z,12.33
2023-05-23T01:12:39.896Z,12.33
2023-05-23T01:15:08.950Z,12.36
2023-05-23T01:17:45.137Z,12.35
2023-05-23T01:20:12.873Z,12.38
2023-05-23T01:22:48.791Z,12.39
2023-05-23T01:25:22.182Z,12.41
2023-05-23T01:27:50.549Z,12.42
2023-05-23T01:30:18.573Z,12.41
2023-05-23T01:32:47.520Z,12.42
2023-05-23T01:35:14.749Z,12.42
2023-05-23T01:37:41.530Z,12.44
2023-05-23T01:40:09.333Z,12.44
2023-05-23T01:42:36.762Z,12.50
2023-05-23T01:45:04.292Z,12.56
2023-05-23T01:47:31.549Z,12.61
2023-05-23T01:49:58.502Z,12.65
2023-05-23T01:52:26.206Z,12.67
2023-05-23T01:54:54.028Z,12.69
2023-05-23T01:57:20.950Z,12.73
2023-05-23T01:59:48.128Z,12.73
2023-05-23T02:02:15.469Z,12.73
2023-05-23T02:04:42.408Z,12.74
2023-05-23T02:07:09.267Z,12.77
2023-05-23T02:09:36.066Z,12.79
2023-05-23T02:12:02.897Z,12.79
2023-05-23T02:14:29.882Z,12.84
2023-05-23T02:16:56.707Z,12.86
2023-05-23T02:19:23.799Z,12.90
2023-05-23T02:21:51.050Z,12.92
2023-05-23T02:24:18.495Z,12.95
2023-05-23T02:26:45.493Z,12.97
2023-05-23T02:29:12.239Z,12.95
2023-05-23T02:31:39.095Z,12.91
2023-05-23T02:34:06.106Z,12.91
2023-05-23T02:36:33.578Z,12.88
2023-05-23T02:39:00.573Z,12.87
2023-05-23T02:41:27.480Z,12.85
2023-05-23T02:43:54.616Z,12.84
2023-05-23T02:46:21.561Z,12.85
2023-05-23T02:48:48.808Z,12.85
2023-05-23T02:51:15.811Z,12.83
2023-05-23T02:53:42.883Z,12.82
2023-05-23T02:56:09.988Z,12.85
2023-05-23T02:58:37.078Z,12.89
2023-05-23T03:01:05.399Z,12.94
2023-05-23T03:03:33.517Z,12.99
2023-05-23T03:06:03.487Z,13.09
2023-05-23T03:08:30.247Z,13.17
2023-05-23T03:10:57.032Z,13.24
2023-05-23T03:13:23.865Z,13.29
2023-05-23T03:15:50.658Z,13.36
2023-05-23T03:18:17.440Z,13.50
2023-05-23T03:20:44.295Z,13.62
2023-05-23T03:23:11.030Z,13.79
2023-05-23T03:25:37.906Z,13.92
2023-05-23T03:28:04.908Z,14.02
2023-05-23T03:30:31.822Z,14.14
2023-05-23T03:32:58.723Z,14.26
2023-05-23T03:35:25.572Z,14.40
2023-05-23T03:37:52.382Z,14.55
2023-05-23T03:40:19.404Z,14.72
2023-05-23T03:42:48.081Z,14.90
2023-05-23T03:45:14.877Z,15.10
2023-05-23T03:47:43.102Z,15.24
2023-05-23T03:50:28.654Z,15.35
2023-05-23T03:52:57.100Z,15.43
2023-05-23T03:55:25.581Z,15.50
2023-05-23T03:57:52.531Z,15.58
2023-05-23T04:00:20.249Z,15.67
2023-05-23T04:03:08.888Z,15.72
2023-05-23T04:05:36.164Z,15.77
2023-05-23T04:08:03.864Z,15.83
2023-05-23T04:10:31.295Z,15.86
2023-05-23T04:12:58.990Z,15.86
2023-05-23T04:15:25.951Z,15.86
2023-05-23T04:17:58.389Z,15.81
2023-05-23T04:20:26.718Z,15.83
2023-05-23T04:22:54.085Z,15.88
2023-05-23T04:25:40.081Z,15.90
2023-05-23T04:28:17.664Z,15.91
2023-05-23T04:30:45.193Z,15.93
2023-05-23T04:33:13.505Z,15.93
2023-05-23T04:35:41.144Z,15.95
2023-05-23T04:38:27.896Z,16.01
2023-05-23T04:40:55.512Z,16.10
2023-05-23T04:43:48.287Z,16.13
2023-05-23T04:46:27.831Z,16.19
2023-05-23T04:49:07.158Z,16.20
2023-05-23T04:51:35.438Z,16.20
2023-05-23T04:54:12.874Z,16.21
2023-05-23T04:56:40.117Z,16.28
2023-05-23T04:59:25.863Z,16.37
2023-05-23T05:01:52.932Z,16.53
2023-05-23T05:04:21.124Z,16.63
2023-05-23T05:06:48.864Z,16.70
2023-05-23T05:09:16.246Z,16.78
2023-05-23T05:11:43.850Z,16.85
2023-05-23T05:14:11.539Z,16.89
2023-05-23T05:16:38.456Z,16.88
2023-05-23T05:19:05.492Z,16.89
2023-05-23T05:21:33.868Z,16.77
2023-05-23T05:24:03.134Z,16.77
2023-05-23T05:26:30.040Z,16.72
2023-05-23T05:28:57.365Z,16.65
2023-05-23T05:31:27.345Z,16.74
2023-05-23T05:33:55.556Z,16.86
2023-05-23T05:36:22.437Z,16.99
2023-05-23T05:38:51.294Z,17.11
2023-05-23T05:41:28.997Z,17.19
2023-05-23T05:43:58.280Z,17.10
2023-05-23T05:46:25.085Z,17.08
2023-05-23T05:48:53.164Z,16.99
2023-05-23T05:51:21.881Z,16.93
2023-05-23T05:53:52.109Z,16.84
2023-05-23T05:56:19.004Z,16.85
2023-05-23T05:58:45.795Z,16.94
2023-05-23T06:01:15.752Z,17.10
2023-05-23T06:03:42.800Z,17.28
2023-05-23T06:06:10.359Z,17.50
2023-05-23T06:08:39.185Z,17.71
2023-05-23T06:11:10.586Z,17.88
2023-05-23T06:13:37.534Z,17.99
2023-05-23T06:16:05.017Z,18.03
2023-05-23T06:18:32.151Z,18.13
2023-05-23T06:20:58.962Z,18.24
2023-05-23T06:23:26.329Z,18.28
2023-05-23T06:25:53.275Z,18.30
2023-05-23T06:28:20.182Z,18.35
2023-05-23T06:30:47.032Z,18.59
2023-05-23T06:33:14.146Z,18.72
2023-05-23T06:35:42.468Z,18.81
2023-05-23T06:38:09.308Z,18.79
2023-05-23T06:40:36.181Z,18.65
2023-05-23T06:43:03.644Z,18.57
2023-05-23T06:45:54.097Z,18.53
2023-05-23T06:48:21.038Z,18.61
2023-05-23T06:50:49.455Z,18.89
2023-05-23T06:53:18.762Z,19.37
2023-05-23T06:55:46.717Z,19.61
2023-05-23T06:58:16.563Z,19.85
2023-05-23T07:00:43.892Z,19.94
2023-05-23T07:03:28.761Z,19.84
2023-05-23T07:06:00.315Z,19.94
2023-05-23T07:08:27.134Z,20.17
2023-05-23T07:10:59.715Z,20.22
2023-05-23T07:13:46.941Z,20.30
2023-05-23T07:16:21.635Z,20.10
2023-05-23T07:18:59.148Z,20.10
2023-05-23T07:21:26.069Z,20.14
2023-05-23T07:23:52.990Z,20.07
2023-05-23T07:26:21.357Z,20.36
2023-05-23T07:28:52.222Z,20.61
2023-05-23T07:31:19.127Z,20.71
2023-05-23T07:33:46.822Z,20.96
2023-05-23T07:36:20.244Z,21.11
2023-05-23T07:38:47.235Z,20.96
2023-05-23T07:41:14.502Z,20.85
2023-05-23T07:43:41.442Z,20.97
2023-05-23T07:46:08.738Z,21.15
2023-05-23T07:48:36.863Z,21.42
2023-05-23T07:51:04.148Z,21.72
2023-05-23T07:53:31.384Z,21.84
2023-05-23T07:55:58.729Z,22.08
2023-05-23T07:58:28.978Z,22.15
2023-05-23T08:00:55.827Z,22.05
2023-05-23T08:03:42.703Z,21.89
2023-05-23T08:06:15.445Z,22.07
2023-05-23T08:08:43.925Z,22.26
2023-05-23T08:11:11.003Z,22.44
2023-05-23T08:13:44.081Z,22.57
2023-05-23T08:16:38.022Z,22.39
2023-05-23T08:19:16.609Z,22.53
2023-05-23T08:21:44.700Z,22.59
2023-05-23T08:24:15.067Z,22.72
2023-05-23T08:26:43.698Z,22.94
2023-05-23T08:29:12.751Z,23.20
2023-05-23T08:31:41.160Z,23.04
2023-05-23T08:34:08.940Z,23.06
2023-05-23T08:36:41.827Z,23.30
2023-05-23T08:39:14.051Z,23.21
2023-05-23T08:41:57.096Z,23.27
2023-05-23T08:44:24.061Z,23.28
2023-05-23T08:46:58.554Z,23.21
2023-05-23T08:49:45.691Z,23.19
2023-05-23T08:52:13.597Z,23.07
2023-05-23T08:54:43.712Z,22.99
2023-05-23T08:57:13.029Z,22.98
2023-05-23T08:59:44.412Z,22.83
2023-05-23T09:02:12.236Z,22.56
2023-05-23T09:04:39.155Z,22.45
2023-05-23T09:07:20.066Z,22.36
2023-05-23T09:09:51.156Z,22.41
2023-05-23T09:12:18.274Z,22.58
2023-05-23T09:14:47.284Z,22.71
2023-05-23T09:17:20.944Z,22.94
2023-05-23T09:19:48.197Z,23.07
2023-05-23T09:22:38.085Z,23.12
2023-05-23T09:25:13.198Z,23.29
2023-05-23T09:27:43.250Z,23.52
2023-05-23T09:30:13.059Z,23.54
2023-05-23T09:32:39.989Z,23.42
2023-05-23T09:35:07.871Z,23.23
2023-05-23T09:37:41.093Z,22.92
2023-05-23T09:40:10.525Z,22.40
2023-05-23T09:42:43.558Z,22.09
2023-05-23T09:45:10.956Z,21.84
2023-05-23T09:47:37.938Z,21.59
2023-05-23T09:50:05.018Z,21.33
2023-05-23T09:52:41.236Z,21.19
2023-05-23T09:55:08.626Z,20.96
2023-05-23T09:57:37.843Z,20.63
2023-05-23T10:00:14.308Z,20.40
2023-05-23T10:02:41.175Z,20.24
2023-05-23T10:05:08.284Z,19.96
2023-05-23T10:07:35.262Z,19.88
2023-05-23T10:10:03.805Z,19.84
2023-05-23T10:12:58.431Z,19.67
2023-05-23T10:15:25.638Z,19.53
2023-05-23T10:17:52.457Z,19.31
2023-05-23T10:20:22.093Z,18.99
2023-05-23T10:22:48.944Z,18.78
2023-05-23T10:25:17.033Z,18.73
2023-05-23T10:27:43.826Z,18.74
2023-05-23T10:30:11.474Z,18.74
2023-05-23T10:32:39.179Z,18.78
2023-05-23T10:35:26.467Z,18.65
2023-05-23T10:37:56.572Z,18.55
2023-05-23T10:40:29.434Z,18.53
2023-05-23T10:43:15.262Z,18.51
2023-05-23T10:45:45.630Z,18.45
2023-05-23T10:48:42.379Z,18.39
2023-05-23T10:51:11.347Z,18.32
2023-05-23T10:53:39.162Z,18.15
2023-05-23T10:56:07.199Z,17.93
2023-05-23T10:58:34.518Z,17.84
2023-05-23T11:01:02.449Z,17.82
2023-05-23T11:03:36.791Z,17.81
2023-05-23T11:06:04.374Z,17.73
2023-05-23T11:08:47.168Z,17.57
2023-05-23T11:11:14.942Z,17.45
2023-05-23T11:13:53.844Z,17.33
2023-05-23T11:16:27.597Z,17.21
2023-05-23T11:19:13.002Z,17.09
2023-05-23T11:21:40.130Z,17.01
2023-05-23T11:24:06.984Z,16.95
2023-05-23T11:26:33.825Z,16.90
2023-05-23T11:29:00.657Z,16.79
2023-05-23T11:31:28.058Z,16.77
2023-05-23T11:33:55.320Z,16.75
2023-05-23T11:36:22.805Z,16.75
2023-05-23T11:38:53.319Z,16.66
2023-05-23T11:41:20.815Z,16.58
2023-05-23T11:43:51.857Z,16.49
2023-05-23T11:46:18.815Z,16.38
2023-05-23T11:48:46.900Z,16.39
2023-05-23T11:51:13.848Z,16.44
2023-05-23T11:53:40.964Z,16.52
2023-05-23T11:56:08.473Z,16.68
2023-05-23T11:58:36.202Z,16.99
2023-05-23T12:01:03.909Z,17.32
2023-05-23T12:03:31.995Z,17.69
2023-05-23T12:05:59.345Z,17.97
2023-05-23T12:08:26.163Z,18.23
2023-05-23T12:10:53.647Z,18.45
2023-05-23T12:13:20.676Z,18.74
2023-05-23T12:15:48.000Z,18.98
2023-05-23T12:18:17.229Z,19.04
2023-05-23T12:20:43.979Z,18.85
2023-05-23T12:23:18.244Z,18.75
2023-05-23T12:25:45.171Z,18.67
2023-05-23T12:28:13.944Z,18.68
2023-05-23T12:30:44.236Z,18.76
2023-05-23T12:33:12.120Z,18.71
2023-05-23T12:35:43.043Z,18.72
2023-05-23T12:38:10.047Z,18.73
2023-05-23T12:40:36.874Z,18.86
2023-05-23T12:43:03.633Z,19.06
2023-05-23T12:45:34.156Z,19.19
2023-05-23T12:48:02.226Z,19.34
2023-05-23T12:50:29.292Z,19.34
2023-05-23T12:52:56.745Z,19.33
2023-05-23T12:55:23.491Z,19.37
2023-05-23T12:57:50.430Z,19.53
2023-05-23T13:00:17.599Z,19.76
2023-05-23T13:02:44.549Z,19.90
2023-05-23T13:05:11.592Z,19.94
2023-05-23T13:07:38.457Z,19.92
2023-05-23T13:10:05.728Z,20.13
2023-05-23T13:12:34.414Z,20.30
2023-05-23T13:15:19.619Z,20.50
2023-05-23T13:18:05.060Z,20.46
2023-05-23T13:20:32.044Z,20.28
2023-05-23T13:22:59.145Z,19.98
2023-05-23T13:25:26.440Z,19.83
2023-05-23T13:27:53.427Z,19.64
2023-05-23T13:30:39.319Z,19.45
2023-05-23T13:33:06.569Z,19.21
2023-05-23T13:35:33.384Z,19.12
2023-05-23T13:38:00.288Z,18.98
2023-05-23T13:40:27.210Z,18.90
2023-05-23T13:42:54.135Z,18.85
2023-05-23T13:45:22.809Z,18.89
2023-05-23T13:47:49.970Z,18.89
2023-05-23T13:50:18.007Z,18.86
2023-05-23T13:52:49.039Z,18.88
2023-05-23T13:55:16.550Z,18.94
2023-05-23T13:57:43.362Z,18.96
2023-05-23T14:00:10.639Z,18.93
2023-05-23T14:02:37.589Z,18.87
2023-05-23T14:05:05.113Z,18.85
2023-05-23T14:07:32.004Z,18.81
2023-05-23T14:09:59.993Z,18.86
2023-05-23T14:12:26.863Z,18.84
2023-05-23T14:14:53.707Z,18.81
2023-05-23T14:17:20.652Z,18.85
2023-05-23T14:19:47.767Z,18.98
2023-05-23T14:22:15.224Z,18.95
2023-05-23T14:24:42.647Z,18.86
2023-05-23T14:27:11.337Z,18.86
2023-05-23T14:29:38.564Z,18.89
2023-05-23T14:32:05.491Z,18.87
2023-05-23T14:34:32.372Z,18.85
2023-05-23T14:36:59.601Z,18.78
2023-05-23T14:39:26.634Z,18.72
2023-05-23T14:41:53.486Z,18.70
2023-05-23T14:44:20.371Z,18.76
2023-05-23T14:46:50.421Z,18.74
2023-05-23T14:49:17.375Z,18.72
2023-05-23T14:51:49.701Z,18.66
2023-05-23T14:54:17.538Z,18.57
2023-05-23T14:56:44.495Z,18.48
2023-05-23T14:59:11.812Z,18.46
2023-05-23T15:01:40.403Z,18.41
2023-05-23T15:04:09.615Z,18.41
2023-05-23T15:06:38.132Z,18.43
2023-05-23T15:09:05.189Z,18.36
2023-05-23T15:12:43.410Z,18.26
2023-05-23T15:14:32.396Z,18.12
2023-05-23T15:17:07.758Z,18.08
2023-05-23T15:19:37.787Z,17.92
2023-05-23T15:22:05.261Z,17.83
2023-05-23T15:24:32.099Z,17.84
2023-05-23T15:27:11.785Z,17.79
2023-05-23T15:29:46.019Z,17.79
2023-05-23T15:32:13.226Z,17.80
2023-05-23T15:34:40.139Z,17.74
2023-05-23T15:37:06.992Z,17.71
2023-05-23T15:39:52.432Z,17.75
2023-05-23T15:42:19.670Z,17.75
2023-05-23T15:44:46.620Z,17.76
2023-05-23T15:47:13.483Z,17.75
2023-05-23T15:49:40.316Z,17.73
2023-05-23T15:52:09.935Z,17.71
2023-05-23T15:54:36.778Z,17.71
2023-05-23T15:57:03.634Z,17.76
2023-05-23T15:59:31.657Z,17.79
2023-05-23T16:01:58.632Z,17.77
2023-05-23T16:04:25.540Z,17.72
2023-05-23T16:06:52.441Z,17.68
2023-05-23T16:09:19.238Z,17.65
2023-05-23T16:11:46.138Z,17.64
2023-05-23T16:14:13.054Z,17.62
2023-05-23T16:16:40.104Z,17.61
2023-05-23T16:19:07.122Z,17.63
2023-05-23T16:21:34.206Z,17.63
2023-05-23T16:24:01.371Z,17.61
2023-05-23T16:26:28.414Z,17.60
2023-05-23T16:28:55.208Z,17.62
2023-05-23T16:31:25.814Z,17.60
2023-05-23T16:33:52.690Z,17.57
2023-05-23T16:36:19.594Z,17.50
2023-05-23T16:38:46.562Z,17.43
2023-05-23T16:41:15.684Z,17.38
2023-05-23T16:43:42.524Z,17.31
2023-05-23T16:46:10.503Z,17.23
2023-05-23T16:48:37.374Z,17.17
2023-05-23T16:51:04.383Z,17.10
2023-05-23T16:53:31.209Z,17.06
2023-05-23T16:55:58.255Z,16.99
2023-05-23T16:58:25.049Z,16.98
2023-05-23T17:00:53.025Z,16.96
2023-05-23T17:03:20.596Z,16.92
2023-05-23T17:05:47.527Z,16.90
2023-05-23T17:08:15.697Z,16.87
2023-05-23T17:10:42.877Z,16.84
2023-05-23T17:13:10.003Z,16.80
2023-05-23T17:15:37.583Z,16.77
2023-05-23T17:18:04.585Z,16.71
2023-05-23T17:20:31.501Z,16.66
2023-05-23T17:22:58.359Z,16.65
2023-05-23T17:25:25.296Z,16.62
2023-05-23T17:27:52.173Z,16.59
2023-05-23T17:30:19.200Z,16.59
2023-05-23T17:32:49.596Z,16.57
2023-05-23T17:35:16.593Z,16.57
2023-05-23T17:37:45.259Z,16.54
2023-05-23T17:40:12.619Z,16.53
2023-05-23T17:42:40.180Z,16.50
2023-05-23T17:45:09.871Z,16.47
2023-05-23T17:47:36.985Z,16.45
2023-05-23T17:50:04.633Z,16.43
2023-05-23T17:52:31.685Z,16.40
2023-05-23T17:55:06.440Z,16.37
2023-05-23T17:57:33.481Z,16.33
2023-05-23T18:00:00.392Z,16.30
2023-05-23T18:02:27.994Z,16.27
2023-05-23T18:04:55.175Z,16.24
2023-05-23T18:07:22.495Z,16.19
2023-05-23T18:09:49.654Z,16.14
2023-05-23T18:12:19.644Z,16.12
2023-05-23T18:14:46.544Z,16.08
2023-05-23T18:17:13.414Z,16.03
2023-05-23T18:19:40.606Z,16.01
2023-05-23T18:22:07.685Z,16.03
2023-05-23T18:24:53.181Z,15.99
2023-05-23T18:27:19.998Z,15.97
2023-05-23T18:29:46.940Z,15.93
2023-05-23T18:32:14.817Z,15.91
2023-05-23T18:35:00.238Z,15.90
2023-05-23T18:37:27.184Z,15.88
2023-05-23T18:40:12.649Z,15.88
2023-05-23T18:42:39.516Z,15.89
2023-05-23T18:45:06.726Z,15.89
2023-05-23T18:47:34.422Z,15.92
2023-05-23T18:50:01.514Z,15.93
2023-05-23T18:52:28.487Z,15.93
2023-05-23T18:54:55.693Z,15.93
2023-05-23T18:57:25.283Z,15.94
2023-05-23T18:59:52.108Z,15.95
2023-05-23T19:02:19.102Z,15.96
2023-05-23T19:04:46.790Z,15.98
2023-05-23T19:07:13.796Z,16.01
2023-05-23T19:09:40.701Z,16.01
2023-05-23T19:12:07.615Z,16.00
2023-05-23T19:14:34.422Z,16.00
2023-05-23T19:17:02.326Z,16.01
2023-05-23T19:19:31.522Z,16.03
2023-05-23T19:21:58.739Z,16.04
2023-05-23T19:24:28.248Z,16.05
2023-05-23T19:26:56.379Z,16.08
2023-05-23T19:29:41.973Z,16.07
2023-05-23T19:32:09.074Z,16.08
2023-05-23T19:34:36.461Z,16.08
2023-05-23T19:37:03.357Z,16.10
2023-05-23T19:39:30.194Z,16.08
2023-05-23T19:42:03.349Z,16.08
2023-05-23T19:44:49.171Z,16.06
2023-05-23T19:47:34.535Z,16.06
2023-05-23T19:50:02.527Z,16.07
2023-05-23T19:52:30.910Z,16.07
2023-05-23T19:54:57.692Z,16.08
2023-05-23T19:57:26.234Z,16.10
2023-05-23T19:59:53.496Z,16.12
2023-05-23T20:02:20.631Z,16.11
2023-05-23T20:04:47.454Z,16.09
2023-05-23T20:07:14.303Z,16.07
2023-05-23T20:09:41.085Z,16.06
2023-05-23T20:12:08.468Z,16.04
2023-05-23T20:14:35.497Z,16.02
2023-05-23T20:17:02.328Z,16.01
2023-05-23T20:19:29.146Z,16.02
2023-05-23T20:21:57.433Z,16.03
2023-05-23T20:24:27.341Z,16.03
2023-05-23T20:26:54.282Z,16.04
2023-05-23T20:29:21.072Z,16.05
2023-05-23T20:31:48.107Z,16.06
2023-05-23T20:34:14.959Z,16.05
2023-05-23T20:36:41.816Z,16.04
2023-05-23T20:39:09.522Z,16.02
2023-05-23T20:41:36.633Z,16.02
2023-05-23T20:44:03.371Z,16.01
2023-05-23T20:46:30.218Z,16.00
2023-05-23T20:48:57.733Z,16.00
2023-05-23T20:51:24.834Z,16.00
2023-05-23T20:53:53.274Z,15.96
2023-05-23T20:56:20.176Z,15.96
2023-05-23T20:58:47.409Z,15.96
2023-05-23T21:01:15.190Z,15.95
2023-05-23T21:03:42.272Z,15.94
2023-05-23T21:06:09.185Z,15.91
2023-05-23T21:08:36.513Z,15.88
2023-05-23T21:11:03.521Z,15.88
2023-05-23T21:13:30.527Z,15.85
2023-05-23T21:15:57.283Z,15.82
2023-05-23T21:18:24.305Z,15.81
2023-05-23T21:20:51.296Z,15.79
2023-05-23T21:23:18.045Z,15.78
2023-05-23T21:25:45.001Z,15.76
2023-05-23T21:28:11.769Z,15.73
2023-05-23T21:30:38.915Z,15.69
2023-05-23T21:33:06.169Z,15.66
2023-05-23T21:35:36.074Z,15.63
2023-05-23T21:38:02.845Z,15.61
2023-05-23T21:40:29.740Z,15.60
2023-05-23T21:42:56.690Z,15.60
2023-05-23T21:45:23.445Z,15.57
2023-05-23T21:47:51.652Z,15.54
2023-05-23T21:50:18.672Z,15.51
2023-05-23T21:52:45.648Z,15.49
2023-05-23T21:55:12.540Z,15.47
2023-05-23T21:57:39.333Z,15.47
2023-05-23T22:00:10.474Z,15.46
2023-05-23T22:02:39.946Z,15.47
2023-05-23T22:05:10.193Z,15.48
2023-05-23T22:07:37.092Z,15.51
2023-05-23T22:10:04.062Z,15.51
2023-05-23T22:12:31.006Z,15.52
2023-05-23T22:14:57.809Z,15.52
2023-05-23T22:17:26.487Z,15.52
2023-05-23T22:19:53.481Z,15.52
2023-05-23T22:22:20.405Z,15.51
2023-05-23T22:24:47.500Z,15.51
2023-05-23T22:27:14.283Z,15.51
2023-05-23T22:29:41.320Z,15.50
2023-05-23T22:32:08.263Z,15.53
2023-05-23T22:34:35.285Z,15.56
2023-05-23T22:37:03.557Z,15.57
2023-05-23T22:39:30.352Z,15.58
2023-05-23T22:41:57.244Z,15.61
2023-05-23T22:44:23.960Z,15.64
2023-05-23T22:46:52.267Z,15.66
2023-05-23T22:49:21.935Z,15.68
2023-05-23T22:51:48.887Z,15.69
2023-05-23T22:54:15.938Z,15.71
2023-05-23T22:56:42.718Z,15.72
2023-05-23T22:59:09.574Z,15.77
2023-05-23T23:01:36.615Z,15.79
2023-05-23T23:04:03.460Z,15.78
2023-05-23T23:06:30.295Z,15.74
2023-05-23T23:08:57.328Z,15.70
2023-05-23T23:11:24.092Z,15.67
2023-05-23T23:13:50.923Z,15.63
2023-05-23T23:16:19.533Z,15.57
2023-05-23T23:18:47.266Z,15.54
2023-05-23T23:21:14.086Z,15.50
2023-05-23T23:23:41.963Z,15.48
2023-05-23T23:26:08.711Z,15.45
2023-05-23T23:28:35.574Z,15.44
2023-05-23T23:31:02.348Z,15.41
2023-05-23T23:33:29.531Z,15.42
2023-05-23T23:35:56.630Z,15.39
2023-05-23T23:38:23.442Z,15.39
2023-05-23T23:40:50.271Z,15.38
2023-05-23T23:43:17.107Z,15.38
2023-05-23T23:45:43.895Z,15.35
2023-05-23T23:48:10.984Z,15.32
2023-05-23T23:50:37.773Z,15.28
2023-05-23T23:53:04.662Z,15.23
2023-05-23T23:55:31.590Z,15.17
2023-05-23T23:57:58.356Z,15.14
